createdAt,value
2023-01-20T00:01:38.251Z,18.43
2023-01-20T00:04:41.328Z,21.20
2023-01-20T00:07:44.382Z,20.83
2023-01-20T00:10:47.520Z,17.97
2023-01-20T00:13:54.453Z,23.07
2023-01-20T00:17:00.126Z,25.40
2023-01-20T00:20:03.172Z,18.40
2023-01-20T00:23:06.237Z,17.90
2023-01-20T00:26:11.880Z,17.30
2023-01-20T00:29:14.893Z,20.13
2023-01-20T00:32:19.475Z,21.57
2023-01-20T00:35:22.515Z,22.47
2023-01-20T00:38:25.533Z,20.50
2023-01-20T00:41:28.517Z,18.63
2023-01-20T00:44:31.589Z,23.93
2023-01-20T00:47:36.031Z,20.67
2023-01-20T00:50:39.060Z,19.17
2023-01-20T00:53:42.161Z,18.63
2023-01-20T00:56:45.105Z,19.67
2023-01-20T00:59:48.061Z,18.47
2023-01-20T01:02:54.848Z,20.27
2023-01-20T01:06:07.620Z,21.37
2023-01-20T01:09:11.109Z,23.80
2023-01-20T01:12:14.195Z,19.63
2023-01-20T01:15:17.281Z,22.53
2023-01-20T01:18:21.759Z,23.43
2023-01-20T01:21:24.787Z,19.13
2023-01-20T01:24:27.856Z,18.83
2023-01-20T01:27:31.101Z,23.13
2023-01-20T01:30:34.462Z,18.00
2023-01-20T01:33:38.943Z,19.70
2023-01-20T01:36:42.071Z,24.70
2023-01-20T01:39:45.102Z,18.63
2023-01-20T01:42:48.084Z,20.67
2023-01-20T01:45:51.179Z,20.40
2023-01-20T01:48:56.620Z,18.67
2023-01-20T01:52:02.491Z,21.73
2023-01-20T01:55:06.119Z,20.20
2023-01-20T01:58:12.864Z,16.60
2023-01-20T02:01:16.072Z,16.83
2023-01-20T02:04:23.248Z,18.90
2023-01-20T02:07:26.841Z,16.47
2023-01-20T02:10:30.131Z,14.90
2023-01-20T02:13:34.118Z,22.73
2023-01-20T02:16:47.343Z,16.93
2023-01-20T02:20:15.759Z,18.87
2023-01-20T02:23:36.154Z,15.77
2023-01-20T02:27:03.356Z,20.50
2023-01-20T02:30:33.460Z,23.03
2023-01-20T02:33:41.944Z,18.97
2023-01-20T02:36:48.697Z,21.93
2023-01-20T02:40:01.759Z,18.10
2023-01-20T02:43:11.358Z,16.57
2023-01-20T02:46:22.038Z,20.77
2023-01-20T02:49:32.057Z,19.07
2023-01-20T02:52:39.408Z,21.73
2023-01-20T02:55:45.410Z,19.57
2023-01-20T02:58:51.360Z,22.27
2023-01-20T03:02:02.451Z,20.90
2023-01-20T03:05:10.276Z,23.63
2023-01-20T03:08:15.582Z,23.13
2023-01-20T03:11:19.158Z,23.00
2023-01-20T03:14:22.357Z,23.97
2023-01-20T03:17:25.558Z,21.07
2023-01-20T03:20:29.987Z,17.47
2023-01-20T03:23:36.283Z,22.63
2023-01-20T03:26:39.976Z,19.47
2023-01-20T03:29:43.178Z,22.97
2023-01-20T03:32:49.084Z,21.33
2023-01-20T03:35:54.076Z,21.20
2023-01-20T03:38:58.112Z,22.30
2023-01-20T03:42:08.773Z,21.00
2023-01-20T03:45:17.964Z,22.90
2023-01-20T03:48:30.057Z,22.03
2023-01-20T03:51:41.643Z,20.57
2023-01-20T03:54:50.267Z,23.20
2023-01-20T03:57:58.328Z,24.90
2023-01-20T04:01:08.870Z,21.50
2023-01-20T04:04:22.352Z,25.13
2023-01-20T04:07:27.846Z,24.97
2023-01-20T04:10:33.696Z,25.73
2023-01-20T04:13:36.898Z,28.90
2023-01-20T04:16:40.065Z,21.27
2023-01-20T04:19:43.095Z,22.43
2023-01-20T04:22:52.685Z,24.67
2023-01-20T04:25:55.670Z,23.97
2023-01-20T04:28:58.680Z,25.33
2023-01-20T04:32:02.204Z,27.73
2023-01-20T04:35:05.753Z,28.63
2023-01-20T04:38:10.400Z,30.80
2023-01-20T04:41:13.763Z,27.10
2023-01-20T04:44:16.958Z,26.67
2023-01-20T04:47:20.083Z,28.97
2023-01-20T04:50:23.281Z,25.33
2023-01-20T04:53:27.850Z,31.17
2023-01-20T04:56:30.887Z,29.53
2023-01-20T04:59:33.978Z,30.53
2023-01-20T05:02:37.086Z,33.93
2023-01-20T05:05:40.167Z,35.90
2023-01-20T05:08:44.651Z,30.33
2023-01-20T05:11:47.726Z,34.57
2023-01-20T05:14:50.754Z,31.70
2023-01-20T05:17:53.833Z,37.20
2023-01-20T05:20:56.794Z,31.63
2023-01-20T05:24:01.217Z,36.37
2023-01-20T05:27:04.494Z,32.57
2023-01-20T05:30:08.960Z,37.90
2023-01-20T05:33:12.030Z,34.70
2023-01-20T05:36:15.021Z,35.20
2023-01-20T05:39:19.691Z,35.10
2023-01-20T05:42:22.834Z,33.37
2023-01-20T05:45:25.881Z,36.37
2023-01-20T05:48:29.496Z,32.33
2023-01-20T05:51:32.557Z,36.50
2023-01-20T05:54:36.969Z,36.90
2023-01-20T05:57:39.901Z,31.30
2023-01-20T06:00:42.901Z,36.87
2023-01-20T06:03:46.156Z,34.50
2023-01-20T06:06:49.352Z,33.70
2023-01-20T06:09:53.706Z,36.43
2023-01-20T06:12:57.548Z,34.43
2023-01-20T06:16:00.594Z,45.87
2023-01-20T06:19:03.721Z,41.50
2023-01-20T06:22:09.493Z,38.43
2023-01-20T06:25:14.306Z,36.13
2023-01-20T06:28:17.595Z,34.27
2023-01-20T06:31:20.667Z,31.87
2023-01-20T06:34:23.700Z,36.90
2023-01-20T06:37:26.697Z,37.77
2023-01-20T06:40:31.076Z,38.53
2023-01-20T06:43:35.851Z,39.23
2023-01-20T06:46:38.972Z,30.33
2023-01-20T06:49:41.959Z,36.63
2023-01-20T06:52:44.944Z,31.90
2023-01-20T06:55:57.063Z,36.10
2023-01-20T06:59:00.266Z,35.87
2023-01-20T07:02:03.347Z,38.17
2023-01-20T07:05:08.186Z,37.40
2023-01-20T07:08:11.579Z,38.03
2023-01-20T07:11:15.976Z,39.43
2023-01-20T07:14:19.026Z,33.07
2023-01-20T07:17:22.060Z,38.40
2023-01-20T07:20:25.105Z,33.20
2023-01-20T07:23:32.096Z,32.47
2023-01-20T07:26:36.489Z,35.60
2023-01-20T07:29:40.586Z,36.53
2023-01-20T07:32:43.622Z,33.93
2023-01-20T07:35:46.605Z,34.87
2023-01-20T07:38:50.643Z,36.47
2023-01-20T07:41:55.200Z,38.63
2023-01-20T07:44:58.214Z,39.07
2023-01-20T07:48:03.182Z,36.00
2023-01-20T07:51:08.075Z,34.77
2023-01-20T07:54:12.590Z,31.83
2023-01-20T07:57:16.967Z,34.93
2023-01-20T08:00:21.032Z,34.17
2023-01-20T08:03:26.606Z,32.20
2023-01-20T08:06:31.364Z,39.60
2023-01-20T08:09:34.367Z,34.03
2023-01-20T08:12:38.829Z,32.97
2023-01-20T08:15:41.826Z,29.63
2023-01-20T08:18:45.291Z,32.37
2023-01-20T08:21:48.330Z,37.57
2023-01-20T08:24:51.559Z,37.87
2023-01-20T08:27:55.997Z,32.97
2023-01-20T08:31:05.818Z,33.00
2023-01-20T08:34:09.637Z,36.33
2023-01-20T08:37:12.693Z,28.77
2023-01-20T08:40:16.152Z,35.27
2023-01-20T08:43:21.840Z,38.87
2023-01-20T08:46:25.026Z,39.53
2023-01-20T08:49:29.748Z,36.03
2023-01-20T08:52:32.823Z,35.83
2023-01-20T08:55:35.872Z,38.60
2023-01-20T08:58:41.057Z,41.37
2023-01-20T09:01:44.199Z,46.07
2023-01-20T09:04:49.618Z,39.07
2023-01-20T09:07:52.647Z,36.43
2023-01-20T09:10:57.478Z,38.43
2023-01-20T09:14:01.850Z,33.27
2023-01-20T09:17:05.077Z,34.77
2023-01-20T09:20:09.077Z,32.67
2023-01-20T09:23:12.095Z,29.83
2023-01-20T09:26:26.064Z,32.07
2023-01-20T09:29:38.006Z,31.00
2023-01-20T09:32:41.011Z,33.43
2023-01-20T09:35:44.049Z,33.47
2023-01-20T09:39:04.508Z,30.10
2023-01-20T09:42:40.063Z,37.17
2023-01-20T09:45:50.859Z,34.37
2023-01-20T09:49:22.816Z,35.73
2023-01-20T09:52:48.605Z,36.13
2023-01-20T09:55:53.867Z,38.23
2023-01-20T09:59:02.472Z,41.40
2023-01-20T10:02:13.317Z,34.20
2023-01-20T10:05:21.819Z,37.03
2023-01-20T10:08:29.991Z,40.57
2023-01-20T10:11:38.008Z,37.00
2023-01-20T10:14:45.821Z,37.73
2023-01-20T10:17:54.824Z,43.37
2023-01-20T10:21:02.897Z,40.10
2023-01-20T10:24:11.409Z,35.37
2023-01-20T10:27:14.373Z,35.97
2023-01-20T10:30:18.518Z,45.60
2023-01-20T10:33:30.103Z,37.77
2023-01-20T10:36:35.739Z,39.27
2023-01-20T10:39:45.735Z,40.13
2023-01-20T10:42:50.449Z,39.17
2023-01-20T10:46:17.196Z,41.50
2023-01-20T10:49:37.450Z,36.97
2023-01-20T10:52:53.042Z,36.53
2023-01-20T10:56:08.826Z,37.20
2023-01-20T10:59:15.790Z,37.77
2023-01-20T11:02:22.930Z,38.03
2023-01-20T11:05:28.975Z,37.70
2023-01-20T11:08:32.320Z,45.10
2023-01-20T11:11:35.305Z,38.00
2023-01-20T11:14:38.561Z,38.13
2023-01-20T11:17:41.618Z,39.03
2023-01-20T11:20:48.381Z,38.33
2023-01-20T11:23:53.180Z,40.37
2023-01-20T11:27:04.564Z,38.53
2023-01-20T11:30:21.682Z,36.30
2023-01-20T11:33:27.097Z,36.70
2023-01-20T11:36:31.491Z,35.93
2023-01-20T11:39:36.388Z,44.43
2023-01-20T11:42:45.908Z,40.13
2023-01-20T11:45:48.927Z,41.57
2023-01-20T11:49:06.673Z,44.93
2023-01-20T11:52:21.217Z,44.30
2023-01-20T11:55:25.575Z,35.63
2023-01-20T11:58:32.448Z,44.30
2023-01-20T12:01:51.880Z,40.20
2023-01-20T12:05:09.883Z,40.73
2023-01-20T12:08:18.990Z,45.77
2023-01-20T12:11:26.766Z,36.70
2023-01-20T12:14:33.323Z,43.17
2023-01-20T12:17:45.300Z,38.17
2023-01-20T12:20:55.949Z,41.73
2023-01-20T12:24:04.872Z,36.93
2023-01-20T12:27:13.422Z,36.17
2023-01-20T12:30:58.663Z,36.87
2023-01-20T12:34:04.734Z,35.53
2023-01-20T12:37:17.467Z,40.53
2023-01-20T12:40:33.592Z,35.83
2023-01-20T12:43:52.842Z,39.53
2023-01-20T12:47:05.363Z,39.03
2023-01-20T12:50:27.150Z,34.00
2023-01-20T12:53:52.625Z,45.03
2023-01-20T12:57:07.187Z,40.70
2023-01-20T13:00:29.486Z,34.23
2023-01-20T13:04:00.842Z,34.83
2023-01-20T13:07:26.156Z,40.53
2023-01-20T13:10:51.117Z,33.50
2023-01-20T13:14:09.716Z,40.30
2023-01-20T13:17:25.812Z,42.23
2023-01-20T13:20:30.211Z,39.07
2023-01-20T13:23:37.038Z,40.77
2023-01-20T13:26:40.310Z,39.17
2023-01-20T13:29:55.279Z,35.70
2023-01-20T13:33:07.820Z,40.63
2023-01-20T13:36:17.768Z,42.67
2023-01-20T13:39:42.693Z,36.93
2023-01-20T13:42:51.427Z,38.43
2023-01-20T13:46:35.767Z,44.93
2023-01-20T13:49:50.261Z,43.03
2023-01-20T13:53:05.233Z,32.80
2023-01-20T13:56:25.595Z,40.17
2023-01-20T13:59:28.597Z,39.67
2023-01-20T14:02:37.627Z,36.93
2023-01-20T14:05:41.868Z,44.53
2023-01-20T14:08:46.713Z,34.87
2023-01-20T14:11:54.718Z,37.00
2023-01-20T14:14:57.771Z,43.80
2023-01-20T14:18:02.609Z,40.53
2023-01-20T14:21:16.902Z,40.63
2023-01-20T14:24:29.297Z,38.20
2023-01-20T14:27:37.313Z,43.13
2023-01-20T14:30:40.532Z,41.67
2023-01-20T14:33:54.246Z,42.57
2023-01-20T14:37:00.464Z,40.63
2023-01-20T14:40:18.019Z,46.17
2023-01-20T14:43:23.011Z,42.60
2023-01-20T14:46:26.670Z,40.73
2023-01-20T14:49:34.567Z,40.27
2023-01-20T14:52:37.782Z,38.67
2023-01-20T14:55:43.413Z,41.63
2023-01-20T14:58:47.566Z,39.27
2023-01-20T15:01:56.489Z,35.03
2023-01-20T15:05:01.101Z,33.27
2023-01-20T15:08:29.939Z,37.63
2023-01-20T15:11:33.405Z,35.73
2023-01-20T15:14:38.004Z,38.93
2023-01-20T15:17:58.774Z,34.97
2023-01-20T15:21:17.165Z,36.40
2023-01-20T15:24:23.063Z,43.03
2023-01-20T15:27:33.335Z,42.57
2023-01-20T15:30:36.379Z,41.53
2023-01-20T15:33:39.403Z,46.50
2023-01-20T15:36:45.904Z,42.77
2023-01-20T15:39:48.938Z,39.03
2023-01-20T15:42:53.347Z,37.27
2023-01-20T15:45:56.450Z,38.33
2023-01-20T15:48:59.416Z,44.17
2023-01-20T15:52:03.871Z,46.80
2023-01-20T15:55:07.668Z,41.80
2023-01-20T15:58:23.091Z,43.47
2023-01-20T16:01:29.008Z,40.77
2023-01-20T16:04:32.063Z,46.90
2023-01-20T16:07:36.590Z,47.23
2023-01-20T16:10:39.950Z,43.93
2023-01-20T16:13:43.181Z,44.57
2023-01-20T16:16:46.286Z,42.40
2023-01-20T16:19:49.681Z,40.70
2023-01-20T16:22:54.173Z,44.77
2023-01-20T16:25:57.809Z,42.90
2023-01-20T16:29:01.042Z,40.00
2023-01-20T16:32:04.055Z,43.73
2023-01-20T16:35:07.930Z,47.83
2023-01-20T16:38:15.430Z,40.30
2023-01-20T16:41:22.672Z,48.57
2023-01-20T16:44:25.753Z,51.00
2023-01-20T16:47:28.795Z,50.10
2023-01-20T16:50:31.992Z,46.13
2023-01-20T16:53:36.418Z,43.50
2023-01-20T16:56:41.104Z,41.03
2023-01-20T16:59:44.140Z,42.37
2023-01-20T17:02:50.791Z,40.27
2023-01-20T17:05:57.449Z,45.93
2023-01-20T17:09:03.762Z,43.43
2023-01-20T17:12:07.138Z,39.87
2023-01-20T17:15:10.761Z,41.67
2023-01-20T17:18:13.775Z,45.03
2023-01-20T17:21:17.089Z,49.90
2023-01-20T17:24:21.533Z,41.23
2023-01-20T17:27:24.653Z,43.70
2023-01-20T17:30:27.808Z,42.50
2023-01-20T17:33:31.107Z,38.10
2023-01-20T17:36:35.287Z,36.70
2023-01-20T17:39:39.671Z,43.40
2023-01-20T17:42:43.626Z,40.53
2023-01-20T17:45:46.671Z,40.77
2023-01-20T17:48:50.543Z,43.33
2023-01-20T17:51:53.606Z,36.87
2023-01-20T17:54:58.008Z,36.10
2023-01-20T17:58:01.029Z,38.43
2023-01-20T18:01:11.700Z,41.77
2023-01-20T18:04:15.211Z,40.80
2023-01-20T18:07:18.290Z,40.83
2023-01-20T18:10:22.755Z,43.10
2023-01-20T18:13:25.745Z,42.67
2023-01-20T18:16:31.096Z,43.27
2023-01-20T18:19:34.083Z,38.93
2023-01-20T18:22:37.134Z,41.57
2023-01-20T18:25:41.599Z,39.93
2023-01-20T18:28:47.849Z,42.33
2023-01-20T18:31:50.904Z,40.70
2023-01-20T18:34:54.015Z,43.73
2023-01-20T18:37:57.028Z,42.00
2023-01-20T18:41:01.857Z,42.60
2023-01-20T18:44:05.419Z,38.80
2023-01-20T18:47:08.542Z,36.13
2023-01-20T18:50:12.363Z,38.10
2023-01-20T18:53:15.497Z,30.57
2023-01-20T18:56:20.040Z,30.03
2023-01-20T18:59:23.196Z,35.60
2023-01-20T19:02:26.912Z,32.23
2023-01-20T19:05:32.073Z,39.77
2023-01-20T19:08:35.767Z,36.13
2023-01-20T19:11:42.420Z,34.07
2023-01-20T19:14:45.422Z,32.20
2023-01-20T19:17:48.458Z,34.13
2023-01-20T19:20:52.016Z,31.50
2023-01-20T19:23:59.287Z,37.93
2023-01-20T19:27:05.291Z,34.47
2023-01-20T19:30:10.198Z,35.97
2023-01-20T19:33:16.122Z,29.30
2023-01-20T19:36:20.089Z,32.60
2023-01-20T19:39:23.331Z,39.20
2023-01-20T19:42:27.706Z,34.73
2023-01-20T19:45:44.921Z,33.73
2023-01-20T19:48:48.761Z,35.53
2023-01-20T19:51:51.737Z,33.57
2023-01-20T19:54:55.008Z,33.70
2023-01-20T19:57:59.393Z,31.57
2023-01-20T20:01:09.093Z,30.63
2023-01-20T20:04:13.840Z,28.80
2023-01-20T20:07:16.911Z,39.33
2023-01-20T20:10:19.913Z,32.30
2023-01-20T20:13:24.486Z,29.50
2023-01-20T20:16:29.275Z,33.60
2023-01-20T20:19:32.313Z,32.03
2023-01-20T20:22:35.298Z,29.90
2023-01-20T20:25:38.443Z,27.87
2023-01-20T20:28:42.847Z,26.27
2023-01-20T20:31:45.968Z,25.33
2023-01-20T20:34:48.936Z,32.50
2023-01-20T20:37:51.970Z,31.90
2023-01-20T20:40:58.405Z,26.03
2023-01-20T20:44:03.166Z,27.13
2023-01-20T20:47:06.209Z,27.30
2023-01-20T20:50:10.125Z,30.00
2023-01-20T20:53:13.311Z,37.60
2023-01-20T20:56:17.571Z,28.17
2023-01-20T20:59:24.709Z,31.40
2023-01-20T21:02:27.958Z,27.87
2023-01-20T21:05:31.023Z,22.50
2023-01-20T21:08:34.757Z,26.73
2023-01-20T21:11:38.656Z,31.13
2023-01-20T21:14:43.273Z,27.00
2023-01-20T21:17:46.377Z,24.17
2023-01-20T21:20:57.870Z,27.03
2023-01-20T21:24:00.861Z,29.03
2023-01-20T21:27:03.902Z,29.13
2023-01-20T21:30:10.080Z,26.53
2023-01-20T21:33:17.489Z,26.83
2023-01-20T21:36:21.080Z,21.07
2023-01-20T21:39:24.207Z,29.53
2023-01-20T21:42:27.226Z,24.97
2023-01-20T21:45:31.662Z,28.30
2023-01-20T21:48:52.295Z,24.07
2023-01-20T21:52:13.291Z,23.80
2023-01-20T21:55:19.165Z,19.33
2023-01-20T21:58:22.159Z,24.30
2023-01-20T22:01:26.568Z,22.30
2023-01-20T22:04:29.688Z,24.03
2023-01-20T22:07:32.840Z,18.40
2023-01-20T22:10:35.759Z,20.93
2023-01-20T22:13:38.785Z,21.20
2023-01-20T22:16:43.233Z,19.97
2023-01-20T22:19:46.236Z,16.73
2023-01-20T22:22:49.646Z,19.43
2023-01-20T22:25:54.135Z,21.40
2023-01-20T22:28:57.234Z,19.00
2023-01-20T22:32:04.034Z,18.57
2023-01-20T22:35:07.568Z,18.23
2023-01-20T22:38:10.853Z,14.60
2023-01-20T22:41:14.092Z,15.17
2023-01-20T22:44:17.271Z,15.00
2023-01-20T22:47:21.619Z,15.23
2023-01-20T22:50:24.649Z,19.03
2023-01-20T22:53:27.699Z,16.93
2023-01-20T22:56:32.694Z,20.80
2023-01-20T22:59:35.852Z,20.70
2023-01-20T23:02:40.295Z,16.93
2023-01-20T23:05:51.874Z,20.07
2023-01-20T23:08:55.024Z,17.17
2023-01-20T23:11:58.063Z,17.93
2023-01-20T23:15:01.197Z,29.80
2023-01-20T23:18:05.947Z,22.07
2023-01-20T23:21:09.036Z,20.53
2023-01-20T23:24:12.048Z,16.93
2023-01-20T23:27:15.398Z,20.57
2023-01-20T23:30:18.925Z,18.73
2023-01-20T23:33:23.335Z,19.40
2023-01-20T23:36:27.272Z,16.27
2023-01-20T23:39:30.284Z,24.30
2023-01-20T23:42:33.339Z,20.03
2023-01-20T23:45:36.282Z,18.20
2023-01-20T23:48:40.866Z,20.40
2023-01-20T23:51:43.841Z,17.27
2023-01-20T23:54:46.823Z,27.70
2023-01-20T23:57:49.986Z,19.63
